KFFT/FFT METAR and TAF weather

Enter ICAO airport designator
Station Type Date Time Source
KFFT METAR 2018/12/17 16:53 UTC NOAA

KFFT 171653Z AUTO 30006KT 10SM CLR 08/03 A3016 RMK AO2 SLP216 T00830033


Station Type Date Time Source
KFFT Decoded METAR 2018/12/17 16:53 UTC NOAA

FRANKFORT CAPITAL CITY AIRPORT , KY, United States (KFFT) 38-11N 84-54W 236M
Dec 17, 2018 - 11:53 AM EST / 2018.12.17 1653 UTC
Wind: from the WNW (300 degrees) at 7 MPH (6 KT):0
Visibility: 10 mile(s):0
Sky conditions: clear
Temperature: 46.9 F (8.3 C)
Dew Point: 37.9 F (3.3 C)
Relative Humidity: 70%
Pressure (altimeter): 30.16 in. Hg (1021 hPa)
ob: KFFT 171653Z AUTO 30006KT 10SM CLR 08/03 A3016 RMK AO2 SLP216 T00830033
cycle: 17

Station Type Date Time Source
KFFT TAF UTC NOAA

Error!


Example: see airport list